Time;durP1;ratioP1;P1;durP2;ratioP2;P2;SDS_P1;SDS_P2;PMS_P1;PMS_P2;Temp;Humidity;BMP_temperature;BMP_pressure;BME280_temperature;BME280_humidity;BME280_pressure;Samples;Min_cycle;Max_cycle;Signal;HPM_P1;HPM_P2
2022/03/27 00:02:09;;;;;;;2.63;1.60;;;;;;;;;;5095538;28;20036;-60
2022/03/27 00:04:35;;;;;;;2.88;1.67;;;;;;;;;;5094799;28;20032;-61
2022/03/27 00:07:00;;;;;;;2.67;1.98;;;;;;;;;;5095499;28;20094;-61
2022/03/27 00:09:27;;;;;;;3.38;1.70;;;;;;;;;;5095622;28;20450;-61
2022/03/27 00:11:53;;;;;;;2.30;1.90;;;;;;;;;;5077553;28;20043;-61
2022/03/27 00:14:18;;;;;;;3.55;1.73;;;;;;;;;;5095408;28;20040;-60
2022/03/27 00:16:43;;;;;;;1.95;1.67;;;;;;;;;;5095203;28;20016;-60
2022/03/27 00:19:09;;;;;;;2.45;1.60;;;;;;;;;;5095072;28;20075;-60
2022/03/27 00:21:35;;;;;;;1.88;1.50;;;;;;;;;;5094263;28;20082;-61
2022/03/27 00:24:01;;;;;;;1.98;1.75;;;;;;;;;;5094964;28;20040;-60
2022/03/27 00:26:26;;;;;;;2.10;1.90;;;;;;;;;;5095389;28;20063;-60
2022/03/27 00:28:52;;;;;;;2.95;1.83;;;;;;;;;;5095143;28;20391;-60
2022/03/27 00:31:18;;;;;;;2.17;1.98;;;;;;;;;;5094910;28;20074;-60
2022/03/27 00:33:45;;;;;;;2.92;1.88;;;;;;;;;;5094996;28;20032;-60
2022/03/27 00:36:13;;;;;;;3.42;2.05;;;;;;;;;;5095168;28;20028;-60
2022/03/27 00:38:39;;;;;;;2.60;1.92;;;;;;;;;;5094640;28;20032;-60
2022/03/27 00:41:05;;;;;;;1.95;1.70;;;;;;;;;;5094061;28;20040;-60
2022/03/27 00:43:32;;;;;;;3.60;2.22;;;;;;;;;;5095011;28;20421;-60
2022/03/27 00:45:57;;;;;;;3.25;2.10;;;;;;;;;;5094751;28;20091;-60
2022/03/27 00:48:23;;;;;;;2.05;1.95;;;;;;;;;;5094412;28;20578;-60
2022/03/27 00:50:51;;;;;;;3.28;1.98;;;;;;;;;;5094651;28;20470;-60
2022/03/27 00:53:17;;;;;;;2.50;1.95;;;;;;;;;;5094913;28;20178;-60
2022/03/27 00:55:44;;;;;;;3.47;2.38;;;;;;;;;;5094458;28;20016;-60
2022/03/27 00:58:10;;;;;;;2.30;1.98;;;;;;;;;;5094416;28;20040;-60
2022/03/27 01:00:36;;;;;;;3.20;2.00;;;;;;;;;;5094137;28;20024;-61
2022/03/27 01:03:05;;;;;;;2.40;2.20;;;;;;;;;;5076222;28;20039;-61
2022/03/27 01:05:32;;;;;;;4.47;1.85;;;;;;;;;;5094407;28;20027;-67
2022/03/27 01:08:05;;;;;;;4.57;2.35;;;;;;;;;;5094274;28;20089;-67
2022/03/27 01:10:30;;;;;;;3.63;2.30;;;;;;;;;;5093873;28;20044;-66
2022/03/27 01:12:56;;;;;;;2.85;2.22;;;;;;;;;;5094145;28;20036;-67
2022/03/27 01:15:27;;;;;;;6.85;2.28;;;;;;;;;;5094240;28;20038;-66
2022/03/27 01:17:52;;;;;;;3.60;2.25;;;;;;;;;;5093779;28;20471;-66
2022/03/27 01:20:33;;;;;;;3.28;2.05;;;;;;;;;;5075979;28;20032;-66
2022/03/27 01:22:58;;;;;;;2.97;1.90;;;;;;;;;;5093297;28;20036;-67
2022/03/27 01:25:24;;;;;;;2.88;2.17;;;;;;;;;;5093705;28;20367;-66
2022/03/27 01:27:50;;;;;;;3.50;2.40;;;;;;;;;;5093293;28;20104;-67
2022/03/27 01:30:15;;;;;;;3.97;1.98;;;;;;;;;;5093992;28;20074;-67
2022/03/27 01:32:41;;;;;;;2.28;1.65;;;;;;;;;;5093300;28;20044;-66
2022/03/27 01:35:07;;;;;;;2.50;1.85;;;;;;;;;;5092214;28;20028;-67
2022/03/27 01:37:33;;;;;;;3.25;1.77;;;;;;;;;;5093725;28;20028;-66
2022/03/27 01:39:58;;;;;;;4.68;2.13;;;;;;;;;;5093744;28;20180;-66
2022/03/27 01:42:23;;;;;;;2.20;2.00;;;;;;;;;;5093254;28;20059;-65
2022/03/27 01:44:49;;;;;;;4.43;2.20;;;;;;;;;;5075238;28;20036;-66
2022/03/27 01:47:14;;;;;;;2.75;1.90;;;;;;;;;;5092818;28;20092;-65
2022/03/27 01:49:40;;;;;;;4.63;2.50;;;;;;;;;;5092916;28;20030;-66
2022/03/27 01:52:06;;;;;;;4.18;2.63;;;;;;;;;;5092792;28;20048;-65
2022/03/27 01:54:31;;;;;;;3.50;2.30;;;;;;;;;;5093554;28;20040;-65
2022/03/27 01:56:57;;;;;;;3.25;2.08;;;;;;;;;;5093428;28;20067;-65
2022/03/27 01:59:22;;;;;;;3.33;2.47;;;;;;;;;;5093598;28;20038;-65
2022/03/27 02:01:48;;;;;;;2.80;2.47;;;;;;;;;;5093403;28;20047;-65
2022/03/27 02:04:14;;;;;;;3.47;2.22;;;;;;;;;;5075323;28;20428;-65
2022/03/27 02:06:39;;;;;;;2.92;1.85;;;;;;;;;;5093121;28;20439;-65
2022/03/27 02:09:05;;;;;;;4.00;2.13;;;;;;;;;;5074930;28;20028;-65
2022/03/27 02:11:31;;;;;;;7.68;2.22;;;;;;;;;;5075231;28;20028;-65
2022/03/27 02:13:57;;;;;;;4.65;2.40;;;;;;;;;;5093516;28;20454;-65
2022/03/27 02:16:22;;;;;;;5.15;3.10;;;;;;;;;;5093446;28;20036;-65
2022/03/27 02:18:48;;;;;;;12.13;6.70;;;;;;;;;;5093201;28;20035;-65
2022/03/27 02:21:13;;;;;;;21.60;12.20;;;;;;;;;;5092924;28;20044;-65
2022/03/27 02:23:39;;;;;;;21.60;12.30;;;;;;;;;;5074813;28;20024;-66
2022/03/27 02:26:05;;;;;;;4.75;3.47;;;;;;;;;;5093096;28;20036;-66
2022/03/27 02:28:31;;;;;;;4.00;2.95;;;;;;;;;;5093318;28;20362;-66
2022/03/27 02:30:56;;;;;;;5.35;2.97;;;;;;;;;;5093065;28;20034;-66
2022/03/27 02:33:22;;;;;;;6.70;3.33;;;;;;;;;;5093376;28;20020;-65
2022/03/27 02:35:47;;;;;;;4.80;2.90;;;;;;;;;;5093244;28;20038;-65
2022/03/27 02:38:13;;;;;;;4.43;2.47;;;;;;;;;;5093301;28;20073;-66
2022/03/27 02:40:39;;;;;;;6.50;2.70;;;;;;;;;;5092993;28;20515;-66
2022/03/27 02:43:05;;;;;;;3.72;2.70;;;;;;;;;;5093022;28;20067;-66
2022/03/27 02:45:32;;;;;;;29.55;12.35;;;;;;;;;;5059592;28;20446;-66
2022/03/27 02:47:58;;;;;;;26.13;12.13;;;;;;;;;;5096427;28;20062;-66
2022/03/27 02:50:24;;;;;;;16.08;7.45;;;;;;;;;;5096592;28;20075;-66
2022/03/27 02:52:49;;;;;;;15.20;7.18;;;;;;;;;;5096928;28;20028;-66
2022/03/27 02:55:15;;;;;;;10.40;5.47;;;;;;;;;;5078553;28;20077;-66
2022/03/27 02:57:40;;;;;;;11.13;5.68;;;;;;;;;;5096193;28;20081;-66
2022/03/27 03:00:07;;;;;;;9.30;5.22;;;;;;;;;;5096659;28;20054;-65
2022/03/27 03:02:33;;;;;;;9.30;4.75;;;;;;;;;;5078268;28;20487;-66
2022/03/27 03:04:58;;;;;;;9.93;4.78;;;;;;;;;;5096722;28;20119;-65
2022/03/27 03:07:24;;;;;;;15.45;6.57;;;;;;;;;;5096016;28;20025;-66
2022/03/27 03:09:50;;;;;;;9.52;5.40;;;;;;;;;;5096748;28;20173;-65
2022/03/27 03:12:15;;;;;;;10.38;6.85;;;;;;;;;;5096347;28;20036;-66
2022/03/27 03:14:41;;;;;;;8.45;4.55;;;;;;;;;;5096471;28;20055;-66
2022/03/27 03:17:08;;;;;;;3.70;3.08;;;;;;;;;;5096157;28;20111;-66
2022/03/27 03:19:33;;;;;;;6.93;3.33;;;;;;;;;;5096283;28;20035;-66
2022/03/27 03:21:58;;;;;;;5.65;3.35;;;;;;;;;;5095520;28;20469;-65
2022/03/27 03:24:25;;;;;;;4.68;3.15;;;;;;;;;;5077925;28;20040;-65
2022/03/27 03:26:51;;;;;;;5.63;2.88;;;;;;;;;;5096244;28;20386;-65
2022/03/27 03:29:16;;;;;;;4.68;3.42;;;;;;;;;;5095573;28;20086;-65
2022/03/27 03:31:42;;;;;;;5.32;2.75;;;;;;;;;;5095679;28;20028;-65
2022/03/27 03:34:07;;;;;;;4.75;3.90;;;;;;;;;;5096099;28;20464;-65
2022/03/27 03:36:33;;;;;;;6.38;3.65;;;;;;;;;;5095941;28;20024;-65
2022/03/27 03:38:59;;;;;;;27.48;19.90;;;;;;;;;;5077744;28;20518;-66
2022/03/27 03:41:24;;;;;;;19.38;13.85;;;;;;;;;;5095296;28;20062;-65
2022/03/27 03:43:50;;;;;;;15.13;11.50;;;;;;;;;;5095399;28;20071;-65
2022/03/27 03:46:15;;;;;;;12.15;9.60;;;;;;;;;;5095511;28;20107;-65
2022/03/27 03:48:47;;;;;;;6.68;4.88;;;;;;;;;;5095519;28;20455;-65
2022/03/27 03:51:12;;;;;;;5.32;3.25;;;;;;;;;;5095838;28;20032;-66
2022/03/27 03:53:38;;;;;;;14.82;7.15;;;;;;;;;;5095485;28;20051;-66
2022/03/27 03:56:05;;;;;;;15.25;7.72;;;;;;;;;;5094880;28;20044;-66
2022/03/27 03:58:30;;;;;;;9.70;5.28;;;;;;;;;;5094220;28;20490;-66
2022/03/27 04:00:57;;;;;;;5.68;3.83;;;;;;;;;;5095175;28;20072;-66
2022/03/27 04:03:22;;;;;;;6.82;4.25;;;;;;;;;;5095490;28;20043;-60
2022/03/27 04:05:48;;;;;;;4.88;3.67;;;;;;;;;;5095537;28;20032;-60
2022/03/27 04:08:14;;;;;;;3.97;3.33;;;;;;;;;;5095295;28;20024;-60
2022/03/27 04:10:41;;;;;;;4.28;3.42;;;;;;;;;;5095040;28;20055;-60
2022/03/27 04:13:07;;;;;;;7.38;3.92;;;;;;;;;;5095106;28;20039;-61
2022/03/27 04:15:33;;;;;;;6.13;4.20;;;;;;;;;;5077318;28;20036;-60
2022/03/27 04:18:00;;;;;;;5.53;3.75;;;;;;;;;;5095086;28;20035;-65
2022/03/27 04:20:26;;;;;;;3.80;3.00;;;;;;;;;;5095047;28;20044;-65
2022/03/27 04:22:51;;;;;;;4.57;3.92;;;;;;;;;;5076956;28;20039;-65
2022/03/27 04:25:17;;;;;;;7.60;4.43;;;;;;;;;;5095256;28;20035;-65
2022/03/27 04:27:43;;;;;;;3.83;3.45;;;;;;;;;;5095151;28;20064;-65
2022/03/27 04:30:09;;;;;;;3.65;3.25;;;;;;;;;;5095265;28;20058;-66
2022/03/27 04:32:38;;;;;;;7.05;3.03;;;;;;;;;;5095194;28;20027;-66
2022/03/27 04:35:05;;;;;;;3.75;3.08;;;;;;;;;;5094916;28;20032;-66
2022/03/27 04:37:30;;;;;;;7.68;2.92;;;;;;;;;;5094427;28;20032;-66
2022/03/27 04:40:02;;;;;;;3.17;2.70;;;;;;;;;;5094939;28;20061;-66
2022/03/27 04:42:28;;;;;;;6.07;3.47;;;;;;;;;;5076450;28;20044;-66
2022/03/27 04:44:53;;;;;;;6.57;4.28;;;;;;;;;;5094787;28;20516;-66
2022/03/27 04:47:19;;;;;;;6.10;3.80;;;;;;;;;;5094645;28;20040;-66
2022/03/27 04:49:44;;;;;;;6.65;3.85;;;;;;;;;;5094696;28;20056;-66
2022/03/27 04:52:11;;;;;;;8.18;4.07;;;;;;;;;;5094319;28;20432;-66
2022/03/27 04:54:37;;;;;;;27.60;9.98;;;;;;;;;;5094628;28;20383;-66
2022/03/27 04:57:03;;;;;;;70.40;19.58;;;;;;;;;;5076113;28;20497;-66
2022/03/27 04:59:28;;;;;;;142.73;33.88;;;;;;;;;;5094514;28;20043;-72
2022/03/27 05:01:54;;;;;;;210.63;48.15;;;;;;;;;;5094345;28;20044;-64
2022/03/27 05:04:20;;;;;;;189.38;46.33;;;;;;;;;;5076277;28;20024;-64
2022/03/27 05:06:45;;;;;;;152.52;37.67;;;;;;;;;;5076117;28;20032;-64
2022/03/27 05:09:11;;;;;;;107.03;28.50;;;;;;;;;;5094215;28;20106;-65
2022/03/27 05:11:38;;;;;;;89.47;25.95;;;;;;;;;;5094288;28;20032;-65
2022/03/27 05:14:04;;;;;;;97.32;27.10;;;;;;;;;;5094167;28;20111;-65
2022/03/27 05:16:29;;;;;;;88.10;25.67;;;;;;;;;;5094454;28;20575;-64
2022/03/27 05:18:54;;;;;;;187.25;49.70;;;;;;;;;;5076135;28;20031;-75
2022/03/27 05:21:21;;;;;;;183.18;50.47;;;;;;;;;;5093860;28;20040;-64
2022/03/27 05:23:46;;;;;;;160.63;47.47;;;;;;;;;;5075633;28;20110;-64
2022/03/27 05:26:12;;;;;;;165.13;47.55;;;;;;;;;;5093830;28;20189;-64
2022/03/27 05:28:37;;;;;;;161.57;47.05;;;;;;;;;;5093924;28;20081;-64
2022/03/27 05:31:08;;;;;;;135.20;41.35;;;;;;;;;;5075064;28;20498;-64
2022/03/27 05:33:37;;;;;;;122.75;41.25;;;;;;;;;;5093900;28;20036;-64
2022/03/27 05:36:04;;;;;;;126.35;41.47;;;;;;;;;;5093583;28;20362;-64
2022/03/27 05:38:29;;;;;;;119.90;40.55;;;;;;;;;;5093793;28;20063;-64
2022/03/27 05:40:55;;;;;;;102.10;33.50;;;;;;;;;;5071542;28;20458;-64
2022/03/27 05:43:20;;;;;;;95.55;33.47;;;;;;;;;;5074000;28;20036;-65
2022/03/27 05:45:46;;;;;;;109.75;37.35;;;;;;;;;;5073573;28;20029;-64
2022/03/27 05:48:12;;;;;;;117.28;44.47;;;;;;;;;;5055524;28;20475;-65
2022/03/27 05:50:38;;;;;;;142.05;54.15;;;;;;;;;;5073233;28;20074;-64
2022/03/27 05:53:04;;;;;;;138.60;52.17;;;;;;;;;;5073417;28;20082;-64
2022/03/27 05:55:29;;;;;;;101.55;37.28;;;;;;;;;;5073436;28;20017;-64
2022/03/27 05:57:55;;;;;;;74.93;29.40;;;;;;;;;;5073362;28;20505;-64
2022/03/27 06:00:20;;;;;;;77.55;28.90;;;;;;;;;;5072429;28;20025;-64
2022/03/27 06:02:47;;;;;;;67.05;25.17;;;;;;;;;;5072513;28;20033;-65
2022/03/27 06:05:12;;;;;;;46.35;18.23;;;;;;;;;;5071576;28;20031;-65
2022/03/27 06:07:44;;;;;;;36.42;14.93;;;;;;;;;;5053241;28;20387;-65
2022/03/27 06:10:11;;;;;;;31.67;13.93;;;;;;;;;;5071394;28;20548;-65
2022/03/27 06:12:36;;;;;;;33.05;13.68;;;;;;;;;;5071266;28;20033;-65
2022/03/27 06:15:02;;;;;;;34.47;14.55;;;;;;;;;;5071316;28;20037;-65
2022/03/27 06:17:27;;;;;;;39.17;14.30;;;;;;;;;;5072113;28;20114;-65
2022/03/27 06:19:53;;;;;;;22.63;9.90;;;;;;;;;;5073333;28;20048;-65
2022/03/27 06:22:29;;;;;;;19.02;6.28;;;;;;;;;;5077024;28;20039;-67
2022/03/27 06:24:54;;;;;;;8.95;4.95;;;;;;;;;;5059108;28;20032;-65
2022/03/27 06:27:20;;;;;;;7.78;4.50;;;;;;;;;;5076933;28;20379;-65
2022/03/27 06:29:45;;;;;;;10.38;5.18;;;;;;;;;;5076287;28;20032;-60
2022/03/27 06:32:10;;;;;;;7.15;4.38;;;;;;;;;;5076865;28;20033;-60
2022/03/27 06:34:36;;;;;;;7.18;4.40;;;;;;;;;;5076105;28;20037;-60
2022/03/27 06:37:02;;;;;;;5.35;3.17;;;;;;;;;;5076635;28;20024;-60
2022/03/27 06:39:28;;;;;;;5.95;3.30;;;;;;;;;;5076939;28;20071;-60
2022/03/27 06:41:53;;;;;;;4.07;2.78;;;;;;;;;;5058315;28;20459;-60
2022/03/27 06:44:19;;;;;;;6.97;3.15;;;;;;;;;;5076002;28;20044;-60
2022/03/27 06:46:44;;;;;;;4.35;2.80;;;;;;;;;;5076776;28;20036;-60
2022/03/27 06:49:10;;;;;;;4.72;2.70;;;;;;;;;;5076067;28;20127;-60
2022/03/27 06:51:36;;;;;;;3.85;2.60;;;;;;;;;;5076108;28;20036;-61
2022/03/27 06:54:02;;;;;;;4.97;2.47;;;;;;;;;;5075812;28;20041;-60
2022/03/27 06:56:27;;;;;;;6.32;2.22;;;;;;;;;;5075889;28;20031;-60
2022/03/27 06:58:53;;;;;;;4.63;2.53;;;;;;;;;;5075853;28;20033;-60
2022/03/27 07:04:03;;;;;;;2.58;1.80;;;;;;;;;;5076571;28;20127;-60
2022/03/27 07:06:28;;;;;;;3.70;2.50;;;;;;;;;;5075525;28;20116;-60
2022/03/27 07:08:55;;;;;;;2.63;2.10;;;;;;;;;;5058504;28;20078;-60
2022/03/27 07:11:21;;;;;;;3.65;2.08;;;;;;;;;;5076395;28;20035;-61
2022/03/27 07:13:46;;;;;;;4.55;2.80;;;;;;;;;;5075979;28;20071;-60
2022/03/27 07:16:13;;;;;;;3.63;2.80;;;;;;;;;;5075857;28;20064;-61
2022/03/27 07:18:38;;;;;;;2.40;2.15;;;;;;;;;;5075703;28;20036;-60
2022/03/27 07:21:04;;;;;;;4.18;2.75;;;;;;;;;;5075475;28;20025;-60
2022/03/27 07:23:30;;;;;;;2.88;2.30;;;;;;;;;;5075943;28;20505;-61
2022/03/27 07:25:57;;;;;;;2.35;1.88;;;;;;;;;;5075908;28;20482;-61
2022/03/27 07:28:24;;;;;;;2.92;2.42;;;;;;;;;;5075732;28;20162;-60
2022/03/27 07:30:50;;;;;;;3.55;3.03;;;;;;;;;;5075702;28;20021;-61
2022/03/27 07:33:16;;;;;;;5.13;2.95;;;;;;;;;;5075836;28;20036;-61
2022/03/27 07:35:43;;;;;;;4.97;2.90;;;;;;;;;;5075651;28;20060;-61
2022/03/27 07:38:09;;;;;;;5.30;2.90;;;;;;;;;;5075645;28;20044;-61
2022/03/27 07:40:35;;;;;;;35.55;11.60;;;;;;;;;;5075666;28;20379;-61
2022/03/27 07:43:01;;;;;;;52.65;12.93;;;;;;;;;;5075146;28;20037;-61
2022/03/27 07:45:28;;;;;;;5.40;2.45;;;;;;;;;;5075515;28;20468;-61
2022/03/27 07:52:05;;;;;;;26.60;22.85;;;;;;;;;;5076056;28;20553;-61
2022/03/27 07:58:05;;;;;;;6.25;5.65;;;;;;;;;;5075924;28;20027;-61
2022/03/27 08:04:06;;;;;;;1.23;1.10;;;;;;;;;;5075585;28;20498;-61
2022/03/27 08:10:07;;;;;;;5.03;3.17;;;;;;;;;;5075760;28;20054;-61
2022/03/27 08:16:07;;;;;;;286.95;136.18;;;;;;;;;;5075604;28;20132;-61
2022/03/27 08:22:07;;;;;;;6.63;3.58;;;;;;;;;;5074852;28;20098;-61
2022/03/27 08:24:34;;;;;;;80.47;62.08;;;;;;;;;;5074580;28;20036;-61
2022/03/27 08:27:00;;;;;;;2.42;2.22;;;;;;;;;;5074568;28;20109;-61
2022/03/27 08:29:30;;;;;;;3.38;1.02;;;;;;;;;;5074537;28;20064;-61
2022/03/27 08:31:56;;;;;;;3.78;2.08;;;;;;;;;;5074552;28;20040;-61
2022/03/27 08:34:23;;;;;;;2.90;2.00;;;;;;;;;;5074381;28;20497;-61
2022/03/27 08:36:49;;;;;;;18.75;14.63;;;;;;;;;;5074202;28;20094;-61
2022/03/27 08:39:15;;;;;;;1.85;1.75;;;;;;;;;;5073934;28;20020;-61
2022/03/27 08:41:44;;;;;;;4.55;2.13;;;;;;;;;;5073967;28;20368;-61
2022/03/27 08:44:14;;;;;;;96.40;38.63;;;;;;;;;;5072752;28;20040;-61
2022/03/27 08:46:40;;;;;;;8.75;8.07;;;;;;;;;;5072436;28;20031;-61
2022/03/27 08:49:24;;;;;;;1.92;1.35;;;;;;;;;;5073352;28;20063;-61
2022/03/27 08:51:52;;;;;;;12.60;10.35;;;;;;;;;;5074367;28;20044;-61
2022/03/27 08:54:21;;;;;;;2.75;2.53;;;;;;;;;;5056510;28;20037;-61
2022/03/27 08:56:50;;;;;;;4.45;2.75;;;;;;;;;;5074116;28;20040;-61
2022/03/27 08:59:16;;;;;;;3.20;1.10;;;;;;;;;;5074699;28;20035;-61
2022/03/27 09:01:43;;;;;;;1.40;1.10;;;;;;;;;;5074217;28;20041;-61
2022/03/27 09:04:09;;;;;;;2.08;1.10;;;;;;;;;;5074035;28;20048;-61
2022/03/27 09:06:34;;;;;;;1.63;0.95;;;;;;;;;;5074180;28;20075;-61
2022/03/27 09:08:59;;;;;;;0.70;0.70;;;;;;;;;;5073205;28;20119;-62
2022/03/27 09:11:28;;;;;;;3.17;2.05;;;;;;;;;;5073681;28;20132;-61
2022/03/27 09:13:54;;;;;;;3.38;1.48;;;;;;;;;;5073778;28;20463;-60
2022/03/27 09:16:20;;;;;;;2.55;1.10;;;;;;;;;;5073640;28;20090;-61
2022/03/27 09:18:48;;;;;;;1.60;1.02;;;;;;;;;;5073278;28;20032;-60
2022/03/27 09:21:18;;;;;;;1.70;1.60;;;;;;;;;;5072188;28;20059;-61
2022/03/27 09:23:43;;;;;;;0.70;0.70;;;;;;;;;;5073255;28;20119;-61
2022/03/27 09:26:11;;;;;;;1.13;1.05;;;;;;;;;;5073546;28;20118;-61
2022/03/27 09:28:41;;;;;;;1.83;0.80;;;;;;;;;;5055601;28;20441;-61
2022/03/27 09:31:20;;;;;;;2.80;1.05;;;;;;;;;;5073300;28;20206;-61
2022/03/27 09:33:47;;;;;;;1.95;0.90;;;;;;;;;;5073422;28;20391;-61
2022/03/27 09:36:32;;;;;;;0.85;0.73;;;;;;;;;;5073442;28;20033;-61
2022/03/27 09:38:59;;;;;;;1.40;1.02;;;;;;;;;;5055304;28;20387;-61
2022/03/27 09:41:31;;;;;;;2.60;1.50;;;;;;;;;;5072602;28;20074;-61
2022/03/27 09:44:04;;;;;;;2.28;0.90;;;;;;;;;;5073187;28;20368;-61
2022/03/27 09:46:59;;;;;;;1.70;1.60;;;;;;;;;;5073255;28;20071;-61
2022/03/27 09:49:31;;;;;;;1.92;1.83;;;;;;;;;;5041353;28;20048;-60
2022/03/27 09:52:10;;;;;;;1.30;0.90;;;;;;;;;;5073150;28;20082;-61
2022/03/27 09:54:45;;;;;;;3.50;1.70;;;;;;;;;;5072380;28;20437;-60
2022/03/27 09:57:17;;;;;;;0.80;0.77;;;;;;;;;;5071336;28;20047;-60
2022/03/27 09:59:45;;;;;;;0.93;0.82;;;;;;;;;;5070233;28;20040;-60
2022/03/27 10:02:17;;;;;;;0.93;0.70;;;;;;;;;;5072060;28;20118;-60
2022/03/27 10:05:02;;;;;;;2.72;0.90;;;;;;;;;;5054250;28;20050;-60
2022/03/27 10:07:38;;;;;;;2.30;0.95;;;;;;;;;;5072280;28;20032;-60
2022/03/27 10:10:05;;;;;;;1.27;0.80;;;;;;;;;;5072196;28;20060;-60
2022/03/27 10:12:33;;;;;;;2.28;0.95;;;;;;;;;;5072112;28;20032;-60
2022/03/27 10:15:00;;;;;;;1.08;0.90;;;;;;;;;;5072491;28;20078;-60
2022/03/27 10:17:29;;;;;;;0.75;0.73;;;;;;;;;;5054375;28;20025;-60
2022/03/27 10:20:07;;;;;;;2.50;0.77;;;;;;;;;;5072398;28;20123;-60
2022/03/27 10:22:37;;;;;;;1.52;0.75;;;;;;;;;;5054194;28;20047;-60
2022/03/27 10:25:04;;;;;;;3.03;2.38;;;;;;;;;;5054609;28;20036;-61
2022/03/27 10:27:30;;;;;;;4.55;0.93;;;;;;;;;;5072905;28;20028;-60
2022/03/27 10:29:56;;;;;;;0.80;0.60;;;;;;;;;;5072801;28;20029;-60
2022/03/27 10:32:22;;;;;;;7.30;4.38;;;;;;;;;;5054586;28;20040;-61
2022/03/27 10:34:55;;;;;;;18.88;6.65;;;;;;;;;;5054750;28;20429;-61
2022/03/27 10:37:29;;;;;;;1.45;1.08;;;;;;;;;;5072794;28;20465;-60
2022/03/27 10:40:01;;;;;;;11.30;5.03;;;;;;;;;;5072747;28;20036;-60
2022/03/27 10:42:34;;;;;;;1.42;0.80;;;;;;;;;;5088753;28;20040;-60
2022/03/27 10:45:04;;;;;;;136.25;45.08;;;;;;;;;;5092918;28;20040;-61
2022/03/27 10:47:30;;;;;;;1.60;0.95;;;;;;;;;;5093009;28;20058;-60
2022/03/27 10:50:01;;;;;;;3.90;0.80;;;;;;;;;;5092836;28;20075;-61
2022/03/27 10:52:28;;;;;;;1.73;1.15;;;;;;;;;;5092786;28;20119;-61
2022/03/27 10:55:01;;;;;;;1.63;1.52;;;;;;;;;;5074610;28;20028;-61
2022/03/27 10:57:30;;;;;;;2.58;0.90;;;;;;;;;;5092690;28;20409;-61
2022/03/27 10:59:55;;;;;;;1.67;1.00;;;;;;;;;;5092713;28;20085;-60
2022/03/27 11:02:41;;;;;;;1.77;0.85;;;;;;;;;;5074581;28;20028;-60
2022/03/27 11:05:06;;;;;;;5.35;3.00;;;;;;;;;;5092166;28;20028;-61
2022/03/27 11:07:32;;;;;;;1.23;0.90;;;;;;;;;;5095596;28;20181;-61
2022/03/27 11:09:57;;;;;;;1.98;1.00;;;;;;;;;;5078241;28;20036;-61
2022/03/27 11:12:24;;;;;;;313.33;157.82;;;;;;;;;;5096184;28;20032;-61
2022/03/27 11:14:53;;;;;;;3.75;2.95;;;;;;;;;;5096280;28;20040;-61
2022/03/27 11:17:43;;;;;;;2.03;1.05;;;;;;;;;;5096157;28;20032;-61
2022/03/27 11:20:11;;;;;;;4.43;3.65;;;;;;;;;;5064983;28;20048;-61
2022/03/27 11:22:51;;;;;;;2.08;1.00;;;;;;;;;;5096080;28;20051;-61
2022/03/27 11:25:33;;;;;;;1.88;1.10;;;;;;;;;;5095852;28;20119;-61
2022/03/27 11:28:02;;;;;;;2.80;1.92;;;;;;;;;;5096045;28;20117;-61
2022/03/27 11:30:27;;;;;;;1.92;1.27;;;;;;;;;;5095984;28;20052;-61
2022/03/27 11:33:12;;;;;;;2.83;2.63;;;;;;;;;;5095894;28;20555;-61
2022/03/27 11:35:38;;;;;;;2.10;2.00;;;;;;;;;;5095896;28;20040;-61
2022/03/27 11:38:23;;;;;;;1.63;1.15;;;;;;;;;;5095785;28;20455;-61
2022/03/27 11:40:48;;;;;;;3.00;1.60;;;;;;;;;;5095368;28;20093;-61
2022/03/27 11:43:35;;;;;;;3.92;1.60;;;;;;;;;;5095728;28;20070;-61
2022/03/27 11:46:02;;;;;;;2.20;1.90;;;;;;;;;;5095205;28;20475;-60
2022/03/27 11:48:28;;;;;;;1.25;0.98;;;;;;;;;;5095636;28;20106;-61
2022/03/27 11:50:55;;;;;;;2.08;1.88;;;;;;;;;;5095503;28;20040;-61
2022/03/27 11:53:32;;;;;;;1.23;1.10;;;;;;;;;;5095508;28;20032;-61
2022/03/27 11:56:08;;;;;;;1.23;0.98;;;;;;;;;;5077247;28;20394;-61
2022/03/27 11:58:34;;;;;;;1.00;0.88;;;;;;;;;;5095441;28;20036;-61
2022/03/27 12:01:07;;;;;;;1.85;1.20;;;;;;;;;;5095387;28;20039;-61
2022/03/27 12:03:32;;;;;;;1.75;1.05;;;;;;;;;;5095339;28;20047;-61
2022/03/27 12:06:08;;;;;;;1.23;0.93;;;;;;;;;;5095207;28;20028;-61
2022/03/27 12:08:35;;;;;;;0.90;0.80;;;;;;;;;;5095135;28;20036;-61
2022/03/27 12:11:06;;;;;;;1.70;0.85;;;;;;;;;;5077081;28;20146;-61
2022/03/27 12:13:38;;;;;;;1.63;1.00;;;;;;;;;;5095078;28;20047;-61
2022/03/27 12:16:04;;;;;;;1.98;1.48;;;;;;;;;;5077040;28;20061;-60
2022/03/27 12:18:38;;;;;;;1.77;1.55;;;;;;;;;;5094081;28;20062;-60
2022/03/27 12:21:13;;;;;;;1.17;1.05;;;;;;;;;;5094804;28;20067;-60
2022/03/27 12:23:40;;;;;;;2.58;1.02;;;;;;;;;;5076845;28;20036;-60
2022/03/27 12:29:39;;;;;;;1.48;1.10;;;;;;;;;;5094822;28;20021;-61
2022/03/27 12:31:35;;;;;;;1.00;0.95;;;;;;;;;;5095064;28;20044;-60
2022/03/27 12:34:01;;;;;;;1.15;1.05;;;;;;;;;;5076590;28;20444;-61
2022/03/27 12:36:26;;;;;;;1.67;1.20;;;;;;;;;;5094734;28;20478;-61
2022/03/27 12:38:52;;;;;;;4.13;2.65;;;;;;;;;;5076552;28;20036;-60
2022/03/27 12:41:37;;;;;;;2.03;1.48;;;;;;;;;;5094054;28;20146;-61
2022/03/27 12:44:03;;;;;;;1.88;1.38;;;;;;;;;;5094522;28;20123;-60
2022/03/27 12:46:31;;;;;;;4.05;1.33;;;;;;;;;;5094473;28;20119;-61
2022/03/27 12:49:01;;;;;;;2.55;1.45;;;;;;;;;;5094417;28;20047;-61
2022/03/27 12:51:27;;;;;;;2.00;1.25;;;;;;;;;;5094319;28;20028;-61
2022/03/27 12:53:59;;;;;;;3.35;1.23;;;;;;;;;;5094134;28;20078;-61
2022/03/27 12:56:25;;;;;;;2.28;1.02;;;;;;;;;;5094048;28;20110;-61
2022/03/27 12:58:50;;;;;;;1.33;0.90;;;;;;;;;;5076141;28;20112;-60
2022/03/27 13:01:17;;;;;;;1.60;1.20;;;;;;;;;;5093979;28;20046;-61
2022/03/27 13:04:02;;;;;;;0.98;0.93;;;;;;;;;;5094418;28;20028;-62
2022/03/27 13:06:32;;;;;;;1.48;1.05;;;;;;;;;;5075821;28;20128;-62
2022/03/27 13:08:58;;;;;;;;;;;;;;;;;;5093877;28;20035;-62
2022/03/27 13:11:23;;;;;;;2.65;1.25;;;;;;;;;;5093473;28;20274;-62
2022/03/27 13:13:56;;;;;;;2.13;1.83;;;;;;;;;;5093614;28;20032;-61
2022/03/27 13:16:32;;;;;;;1.55;1.10;;;;;;;;;;5075491;28;20429;-62
2022/03/27 13:19:11;;;;;;;3.35;1.30;;;;;;;;;;5093080;28;20405;-65
2022/03/27 13:21:37;;;;;;;1.33;1.10;;;;;;;;;;5075626;28;20557;-59
2022/03/27 13:24:06;;;;;;;2.55;1.77;;;;;;;;;;5094060;28;20114;-59
2022/03/27 13:26:33;;;;;;;6.15;3.28;;;;;;;;;;5093757;28;20127;-59
2022/03/27 13:29:00;;;;;;;4.07;2.92;;;;;;;;;;5093894;28;20042;-69
2022/03/27 13:31:26;;;;;;;2.35;1.90;;;;;;;;;;5094119;28;20073;-64
2022/03/27 13:33:52;;;;;;;1.27;1.17;;;;;;;;;;5094061;28;20020;-62
2022/03/27 13:36:18;;;;;;;3.63;1.20;;;;;;;;;;5093764;28;20032;-61
2022/03/27 13:38:43;;;;;;;3.58;1.58;;;;;;;;;;5093975;28;20032;-61
2022/03/27 13:43:54;;;;;;;2.35;1.25;;;;;;;;;;5093993;28;20048;-61
2022/03/27 13:46:20;;;;;;;2.15;1.27;;;;;;;;;;5075226;28;20504;-61
2022/03/27 13:48:46;;;;;;;1.73;1.30;;;;;;;;;;5092983;28;20063;-62
2022/03/27 13:51:11;;;;;;;3.38;1.42;;;;;;;;;;5091084;28;20040;-61
2022/03/27 13:53:37;;;;;;;2.22;1.50;;;;;;;;;;5073567;28;20370;-61
2022/03/27 13:56:02;;;;;;;3.17;1.20;;;;;;;;;;5073087;28;20033;-61
2022/03/27 13:58:28;;;;;;;1.80;1.48;;;;;;;;;;5073133;28;20042;-62
2022/03/27 14:00:53;;;;;;;1.88;1.77;;;;;;;;;;5072938;28;20028;-61
2022/03/27 14:03:21;;;;;;;1.92;1.27;;;;;;;;;;5073007;28;20486;-61
2022/03/27 14:05:46;;;;;;;1.83;1.25;;;;;;;;;;5073505;28;20071;-61
2022/03/27 14:08:12;;;;;;;2.03;1.38;;;;;;;;;;5073125;28;20041;-62
2022/03/27 14:10:37;;;;;;;2.72;1.42;;;;;;;;;;5073588;28;20340;-62
2022/03/27 14:13:03;;;;;;;1.23;1.10;;;;;;;;;;5073367;28;20055;-62
2022/03/27 14:15:28;;;;;;;1.40;1.00;;;;;;;;;;5073213;28;20028;-62
2022/03/27 14:17:57;;;;;;;2.00;1.20;;;;;;;;;;5073660;28;20052;-61
2022/03/27 14:20:22;;;;;;;3.63;1.20;;;;;;;;;;5073005;28;20032;-62
2022/03/27 14:22:48;;;;;;;2.08;1.27;;;;;;;;;;5072968;28;20533;-61
2022/03/27 14:25:14;;;;;;;2.15;1.40;;;;;;;;;;5073389;28;20025;-61
2022/03/27 14:27:41;;;;;;;1.40;1.30;;;;;;;;;;5072799;28;20063;-61
2022/03/27 14:30:11;;;;;;;1.70;1.42;;;;;;;;;;5054930;28;20036;-61
2022/03/27 14:32:37;;;;;;;2.95;1.73;;;;;;;;;;5072854;28;20048;-62
2022/03/27 14:35:05;;;;;;;2.80;1.60;;;;;;;;;;5072461;28;20036;-62
2022/03/27 14:37:31;;;;;;;1.90;1.25;;;;;;;;;;5054382;28;20040;-62
2022/03/27 14:39:59;;;;;;;2.67;1.17;;;;;;;;;;5072637;28;20077;-62
2022/03/27 14:42:25;;;;;;;2.05;1.40;;;;;;;;;;5075170;28;20123;-61
2022/03/27 14:44:51;;;;;;;1.48;1.13;;;;;;;;;;5076417;28;20067;-62
2022/03/27 14:50:52;;;;;;;1.45;1.17;;;;;;;;;;5077258;28;20032;-61
2022/03/27 14:56:52;;;;;;;1.98;1.27;;;;;;;;;;5077109;28;20567;-61
2022/03/27 15:06:29;;;;;;;1.73;1.17;;;;;;;;;;5076951;28;20452;-61
2022/03/27 15:12:28;;;;;;;3.03;1.70;;;;;;;;;;5076850;28;20033;-61
2022/03/27 15:18:28;;;;;;;2.15;1.38;;;;;;;;;;5076483;28;20420;-61
2022/03/27 15:21:15;;;;;;;2.67;1.35;;;;;;;;;;5076379;28;20119;-62
2022/03/27 15:23:41;;;;;;;1.58;1.10;;;;;;;;;;5075780;28;20493;-61
2022/03/27 15:26:08;;;;;;;1.90;1.50;;;;;;;;;;5075789;28;20107;-61
2022/03/27 15:28:34;;;;;;;3.25;1.48;;;;;;;;;;5075497;28;20082;-62
2022/03/27 15:30:59;;;;;;;2.30;1.27;;;;;;;;;;5075761;28;20020;-61
2022/03/27 15:33:25;;;;;;;2.75;1.73;;;;;;;;;;5075719;28;20090;-61